createdAt,value
2019-06-25T00:27:38.689Z,99805.84
2019-06-25T00:30:07.383Z,99807.95
2019-06-25T00:32:35.845Z,99806.45
2019-06-25T00:35:04.755Z,99803.39
2019-06-25T00:37:33.216Z,99800.38
2019-06-25T00:40:01.686Z,99805.47
2019-06-25T00:42:30.146Z,99803.46
2019-06-25T00:44:58.507Z,99803.66
2019-06-25T00:47:27.177Z,99794.87
2019-06-25T00:49:55.748Z,99791.40
2019-06-25T00:52:24.111Z,99791.05
2019-06-25T00:54:52.689Z,99789.37
2019-06-25T00:57:21.154Z,99791.70
2019-06-25T00:59:49.617Z,99794.58
2019-06-25T01:02:40.237Z,99793.98
2019-06-25T01:05:08.801Z,99794.39
2019-06-25T01:07:37.193Z,99795.91
2019-06-25T01:12:34.391Z,99802.97
2019-06-25T01:15:03.012Z,99798.89
2019-06-25T01:17:31.571Z,99796.47
2019-06-25T01:20:00.191Z,99791.28
2019-06-25T01:22:28.699Z,99799.34
2019-06-25T01:24:57.066Z,99799.31
2019-06-25T01:27:25.725Z,99799.93
2019-06-25T01:29:54.267Z,99802.25
2019-06-25T01:32:22.761Z,99804.55
2019-06-25T01:34:51.230Z,99804.02
2019-06-25T01:37:19.677Z,99806.70
2019-06-25T01:39:48.226Z,99801.34
2019-06-25T01:42:16.990Z,99799.40
2019-06-25T01:44:45.550Z,99805.95
2019-06-25T01:47:13.902Z,99803.87
2019-06-25T01:49:42.359Z,99808.13
2019-06-25T01:52:10.819Z,99806.58
2019-06-25T01:54:39.165Z,99805.77
2019-06-25T01:57:07.750Z,99812.76
2019-06-25T01:59:36.331Z,99811.97
2019-06-25T02:02:04.898Z,99818.23
2019-06-25T02:04:33.344Z,99819.25
2019-06-25T02:07:01.814Z,99817.14
2019-06-25T02:09:30.520Z,99813.45
2019-06-25T02:11:58.994Z,99815.39
2019-06-25T02:14:27.458Z,99824.40
2019-06-25T02:16:55.797Z,99821.88
2019-06-25T02:19:24.152Z,99827.11
2019-06-25T02:21:52.711Z,99825.53
2019-06-25T02:24:21.169Z,99824.80
2019-06-25T02:26:49.730Z,99831.00
2019-06-25T02:29:18.307Z,99828.10
2019-06-25T02:31:46.832Z,99839.59
2019-06-25T02:34:15.192Z,99830.78
2019-06-25T02:36:43.748Z,99832.89
2019-06-25T02:39:12.095Z,99834.84
2019-06-25T02:41:40.441Z,99831.47
2019-06-25T02:44:09.041Z,99837.04
2019-06-25T02:46:37.500Z,99841.11
2019-06-25T02:49:06.062Z,99839.02
2019-06-25T02:51:34.722Z,99837.61
2019-06-25T02:54:03.416Z,99842.38
2019-06-25T02:56:32.087Z,99835.07
2019-06-25T02:59:00.725Z,99838.50
2019-06-25T03:01:30.223Z,99833.03
2019-06-25T03:03:58.882Z,99835.96
2019-06-25T03:06:27.456Z,99842.94
2019-06-25T03:08:56.008Z,99840.73
2019-06-25T03:11:24.465Z,99843.09
2019-06-25T03:13:52.939Z,99845.78
2019-06-25T03:16:21.421Z,99848.25
2019-06-25T03:18:49.870Z,99847.31
2019-06-25T03:21:18.425Z,99852.62
2019-06-25T03:23:46.893Z,99847.98
2019-06-25T03:26:15.353Z,99847.66
2019-06-25T03:28:44.096Z,99847.92
2019-06-25T03:31:12.727Z,99851.03
2019-06-25T03:33:41.191Z,99853.09
2019-06-25T03:36:09.829Z,99854.25
2019-06-25T03:38:38.372Z,99852.01
2019-06-25T03:41:06.893Z,99858.14
2019-06-25T03:43:35.529Z,99860.41
2019-06-25T03:46:03.989Z,99857.30
2019-06-25T03:48:32.570Z,99861.52
2019-06-25T03:51:01.025Z,99860.69
2019-06-25T03:53:29.597Z,99861.80
2019-06-25T03:55:57.951Z,99862.85
2019-06-25T03:58:26.446Z,99866.13
2019-06-25T04:00:54.873Z,99869.23
2019-06-25T04:03:23.537Z,99865.36
2019-06-25T04:05:52.112Z,99863.13
2019-06-25T04:08:20.694Z,99867.28
2019-06-25T04:10:49.243Z,99862.98
2019-06-25T04:13:17.721Z,99864.00
2019-06-25T04:15:46.173Z,99868.34
2019-06-25T04:18:14.687Z,99865.74
2019-06-25T04:20:43.241Z,99872.92
2019-06-25T04:23:11.804Z,99872.27
2019-06-25T04:25:40.368Z,99873.57
2019-06-25T04:28:08.939Z,99879.58
2019-06-25T04:30:37.480Z,99878.08
2019-06-25T04:33:06.053Z,99876.22
2019-06-25T04:35:34.599Z,99879.47
2019-06-25T04:38:02.971Z,99877.63
2019-06-25T04:40:31.415Z,99872.80
2019-06-25T04:43:00.386Z,99872.18
2019-06-25T04:45:28.855Z,99864.01
2019-06-25T04:47:57.414Z,99869.52
2019-06-25T04:50:25.976Z,99874.69
2019-06-25T04:52:54.687Z,99869.19
2019-06-25T04:55:23.409Z,99872.01
2019-06-25T04:57:51.888Z,99875.34
2019-06-25T05:00:20.405Z,99882.81
2019-06-25T05:02:50.490Z,99881.95
2019-06-25T05:05:19.303Z,99878.81
2019-06-25T05:07:47.925Z,99882.45
2019-06-25T05:10:17.276Z,99883.42
2019-06-25T05:12:45.776Z,99884.70
2019-06-25T05:15:15.353Z,99887.72
2019-06-25T05:17:43.948Z,99890.48
2019-06-25T05:20:14.674Z,99896.80
2019-06-25T05:22:43.227Z,99899.63
2019-06-25T05:25:12.534Z,99905.35
2019-06-25T05:27:41.201Z,99899.54
2019-06-25T05:30:10.378Z,99903.63
2019-06-25T05:32:38.934Z,99905.38
2019-06-25T05:35:09.118Z,99907.35
2019-06-25T05:37:39.326Z,99902.58
2019-06-25T05:40:08.597Z,99903.82
2019-06-25T05:42:37.171Z,99899.59
2019-06-25T05:45:09.280Z,99901.27
2019-06-25T05:47:37.942Z,99900.48
2019-06-25T05:50:07.910Z,99907.16
2019-06-25T05:52:36.354Z,99911.27
2019-06-25T05:55:05.104Z,99906.76
2019-06-25T05:57:33.573Z,99909.02
2019-06-25T06:00:02.070Z,99904.34
2019-06-25T06:02:30.831Z,99914.98
2019-06-25T06:04:59.411Z,99919.20
2019-06-25T06:07:27.923Z,99916.81
2019-06-25T06:09:56.578Z,99917.52
2019-06-25T06:12:25.270Z,99910.27
2019-06-25T06:14:53.718Z,99915.61
2019-06-25T06:17:22.301Z,99916.20
2019-06-25T06:19:50.913Z,99920.01
2019-06-25T06:22:19.357Z,99918.06
2019-06-25T06:24:47.850Z,99916.95
2019-06-25T06:27:16.303Z,99915.47
2019-06-25T06:29:44.792Z,99917.67
2019-06-25T06:32:13.249Z,99916.05
2019-06-25T06:34:41.835Z,99915.09
2019-06-25T06:37:10.193Z,99915.66
2019-06-25T06:39:38.572Z,99920.69
2019-06-25T06:42:07.178Z,99912.12
2019-06-25T06:44:35.653Z,99920.89
2019-06-25T06:47:04.313Z,99915.67
2019-06-25T06:49:32.784Z,99922.75
2019-06-25T06:52:01.235Z,99921.75
2019-06-25T06:54:29.801Z,99917.72
2019-06-25T06:56:58.363Z,99914.33
2019-06-25T06:59:26.943Z,99916.72
2019-06-25T07:01:55.501Z,99908.81
2019-06-25T07:04:24.107Z,99912.20
2019-06-25T07:06:52.548Z,99912.37
2019-06-25T07:09:21.240Z,99909.67
2019-06-25T07:11:49.696Z,99912.52
2019-06-25T07:14:18.072Z,99913.70
2019-06-25T07:16:46.738Z,99914.02
2019-06-25T07:19:15.307Z,99906.08
2019-06-25T07:21:43.875Z,99913.31
2019-06-25T07:24:12.344Z,99912.80
2019-06-25T07:26:41.150Z,99907.23
2019-06-25T07:29:09.709Z,99910.59
2019-06-25T07:31:38.304Z,99911.45
2019-06-25T07:34:09.714Z,99915.47
2019-06-25T07:36:37.307Z,99917.86
2019-06-25T07:39:06.096Z,99906.20
2019-06-25T07:41:35.521Z,99903.66
2019-06-25T07:44:04.278Z,99899.36
2019-06-25T07:46:32.955Z,99909.73
2019-06-25T07:49:01.410Z,99909.28
2019-06-25T07:51:30.094Z,99897.98
2019-06-25T07:53:58.658Z,99911.95
2019-06-25T07:56:36.752Z,99904.70
2019-06-25T07:58:57.691Z,99900.97
2019-06-25T08:01:26.167Z,99902.13
2019-06-25T08:03:54.730Z,99902.50
2019-06-25T08:06:23.612Z,99901.61
2019-06-25T08:08:52.165Z,99904.16
2019-06-25T08:11:20.744Z,99905.31
2019-06-25T08:13:49.302Z,99897.41
2019-06-25T08:16:17.756Z,99892.66
2019-06-25T08:18:46.230Z,99899.63
2019-06-25T08:21:14.720Z,99904.64
2019-06-25T08:23:43.191Z,99898.58
2019-06-25T08:26:11.970Z,99896.56
2019-06-25T08:28:40.430Z,99900.92
2019-06-25T08:31:09.406Z,99892.91
2019-06-25T08:33:38.130Z,99889.11
2019-06-25T08:36:06.712Z,99891.50
2019-06-25T08:38:35.262Z,99892.81
2019-06-25T08:41:03.841Z,99895.61
2019-06-25T08:43:32.428Z,99887.75
2019-06-25T08:46:00.907Z,99892.86
2019-06-25T08:48:29.505Z,99881.23
2019-06-25T08:50:58.065Z,99889.73
2019-06-25T08:53:26.721Z,99884.69
2019-06-25T08:55:55.181Z,99885.63
2019-06-25T08:58:23.625Z,99885.94
2019-06-25T09:00:52.300Z,99882.59
2019-06-25T09:03:20.782Z,99869.03
2019-06-25T09:05:49.286Z,99889.85
2019-06-25T09:08:17.942Z,99886.52
2019-06-25T09:10:49.878Z,99885.83
2019-06-25T09:13:16.696Z,99880.84
2019-06-25T09:15:45.176Z,99876.72
2019-06-25T09:18:13.662Z,99873.69
2019-06-25T09:20:42.123Z,99870.89
2019-06-25T09:23:10.736Z,99882.08
2019-06-25T09:25:39.281Z,99863.95
2019-06-25T09:28:07.863Z,99880.05
2019-06-25T09:30:37.365Z,99882.36
2019-06-25T09:33:06.304Z,99877.15
2019-06-25T09:35:34.925Z,99877.15
2019-06-25T09:38:03.744Z,99868.69
2019-06-25T09:40:31.145Z,99877.06
2019-06-25T09:42:58.470Z,99881.55
2019-06-25T09:45:34.862Z,99870.89
2019-06-25T09:48:05.700Z,99863.76
2019-06-25T09:50:34.164Z,99859.41
2019-06-25T09:53:02.775Z,99872.67
2019-06-25T09:55:31.371Z,99861.77
2019-06-25T09:57:59.838Z,99861.77
2019-06-25T10:00:52.383Z,99859.47
2019-06-25T10:03:21.545Z,99859.74
2019-06-25T10:05:50.316Z,99846.80
2019-06-25T10:08:18.822Z,99846.80
2019-06-25T10:10:47.591Z,99865.98
2019-06-25T10:13:16.066Z,99850.59
2019-06-25T10:15:44.952Z,99864.14
2019-06-25T10:18:13.645Z,99857.06
2019-06-25T10:20:42.159Z,99857.06
2019-06-25T10:23:10.726Z,99864.65
2019-06-25T10:25:39.419Z,99859.39
2019-06-25T10:28:08.197Z,99842.63
2019-06-25T10:30:47.694Z,99851.45
2019-06-25T10:33:16.352Z,99851.45
2019-06-25T10:35:47.807Z,99855.03
2019-06-25T10:38:16.054Z,99855.03
2019-06-25T10:40:44.648Z,99855.17
2019-06-25T10:43:13.123Z,99855.84
2019-06-25T10:45:41.918Z,99855.84
2019-06-25T10:48:10.506Z,99857.27
2019-06-25T10:50:39.100Z,99857.67
2019-06-25T10:53:07.873Z,99858.05
2019-06-25T10:55:36.538Z,99856.70
2019-06-25T10:58:05.024Z,99865.09
2019-06-25T11:00:41.550Z,99856.59
2019-06-25T11:03:10.135Z,99853.81
2019-06-25T11:05:39.298Z,99850.97
2019-06-25T11:08:07.836Z,99847.55
2019-06-25T11:10:36.309Z,99855.30
2019-06-25T11:13:05.019Z,99854.02
2019-06-25T11:15:33.882Z,99856.79
2019-06-25T11:18:02.585Z,99842.21
2019-06-25T11:20:31.161Z,99846.75
2019-06-25T11:22:59.836Z,99827.85
2019-06-25T11:25:28.330Z,99831.77
2019-06-25T11:27:56.828Z,99832.34
2019-06-25T11:30:25.293Z,99832.09
2019-06-25T11:32:53.881Z,99826.29
2019-06-25T11:35:22.367Z,99827.69
2019-06-25T11:37:51.052Z,99825.47
2019-06-25T11:40:25.791Z,99823.91
2019-06-25T11:42:54.357Z,99819.61
2019-06-25T11:45:22.842Z,99819.02
2019-06-25T11:47:53.547Z,99815.47
2019-06-25T11:50:22.123Z,99814.70
2019-06-25T11:52:50.605Z,99806.82
2019-06-25T11:55:19.378Z,99808.31
2019-06-25T11:57:47.995Z,99819.28
2019-06-25T12:00:18.664Z,99812.13
2019-06-25T12:02:48.626Z,99820.71
2019-06-25T12:05:18.227Z,99813.94
2019-06-25T12:07:46.903Z,99809.75
2019-06-25T12:10:15.735Z,99812.04
2019-06-25T12:12:44.418Z,99813.06
2019-06-25T12:15:12.908Z,99804.16
2019-06-25T12:17:41.760Z,99802.66
2019-06-25T12:20:10.441Z,99805.17
2019-06-25T12:22:39.039Z,99812.33
2019-06-25T12:25:08.291Z,99803.08
2019-06-25T12:27:37.163Z,99803.13
2019-06-25T12:30:07.045Z,99809.31
2019-06-25T12:32:35.615Z,99802.09
2019-06-25T12:35:05.164Z,99798.21
2019-06-25T12:37:33.966Z,99795.14
2019-06-25T12:40:03.252Z,99791.19
2019-06-25T12:42:31.860Z,99788.98
2019-06-25T12:45:00.639Z,99797.88
2019-06-25T12:47:29.210Z,99798.02
2019-06-25T12:49:57.937Z,99794.02
2019-06-25T12:52:26.510Z,99798.41
2019-06-25T12:54:55.202Z,99790.61
2019-06-25T12:57:23.887Z,99783.31
2019-06-25T12:59:52.601Z,99789.53
2019-06-25T13:02:21.655Z,99790.85
2019-06-25T13:04:50.362Z,99774.06
2019-06-25T13:07:25.532Z,99768.19
2019-06-25T13:09:49.281Z,99767.13
2019-06-25T13:12:17.753Z,99762.82
2019-06-25T13:14:46.227Z,99760.83
2019-06-25T13:17:14.815Z,99760.89
2019-06-25T13:19:43.710Z,99769.12
2019-06-25T13:22:12.415Z,99776.77
2019-06-25T13:24:41.222Z,99768.01
2019-06-25T13:27:09.761Z,99768.38
2019-06-25T13:29:38.439Z,99765.87
2019-06-25T13:32:07.322Z,99768.12
2019-06-25T13:34:35.914Z,99777.50
2019-06-25T13:37:04.631Z,99770.36
2019-06-25T13:39:33.117Z,99779.13
2019-06-25T13:42:05.103Z,99775.27
2019-06-25T13:44:32.789Z,99788.66
2019-06-25T13:47:02.128Z,99786.88
2019-06-25T13:49:31.473Z,99785.28
2019-06-25T13:52:00.142Z,99783.20
2019-06-25T13:54:28.834Z,99784.08
2019-06-25T13:56:57.471Z,99786.00
2019-06-25T13:59:26.159Z,99786.00
2019-06-25T14:01:54.732Z,99793.91
2019-06-25T14:04:23.314Z,99790.38
2019-06-25T14:06:52.325Z,99794.62
2019-06-25T14:09:21.187Z,99786.42
2019-06-25T14:11:52.622Z,99788.59
2019-06-25T14:14:21.551Z,99781.84
2019-06-25T14:16:50.313Z,99761.16
2019-06-25T14:19:19.061Z,99769.88
2019-06-25T14:21:47.660Z,99770.88
2019-06-25T14:24:16.283Z,99768.48
2019-06-25T14:26:44.828Z,99762.81
2019-06-25T14:29:13.665Z,99759.80
2019-06-25T14:31:42.425Z,99755.00
2019-06-25T14:34:11.094Z,99753.95
2019-06-25T14:36:39.780Z,99756.41
2019-06-25T14:39:08.352Z,99754.71
2019-06-25T14:41:36.953Z,99763.84
2019-06-25T14:44:05.551Z,99751.52
2019-06-25T14:46:34.130Z,99750.77
2019-06-25T14:49:02.976Z,99751.52
2019-06-25T14:51:31.608Z,99760.26
2019-06-25T14:53:59.999Z,99761.34
2019-06-25T14:56:28.671Z,99759.78
2019-06-25T14:58:57.485Z,99764.21
2019-06-25T15:01:26.063Z,99768.01
2019-06-25T15:03:54.544Z,99764.06
2019-06-25T15:06:23.228Z,99767.83
2019-06-25T15:08:51.945Z,99766.02
2019-06-25T15:11:20.521Z,99758.45
2019-06-25T15:13:49.205Z,99760.95
2019-06-25T15:16:17.811Z,99760.95
2019-06-25T15:18:46.506Z,99749.77
2019-06-25T15:21:15.351Z,99750.62
2019-06-25T15:23:44.086Z,99755.20
2019-06-25T15:26:12.642Z,99758.91
2019-06-25T15:28:41.224Z,99768.87
2019-06-25T15:31:09.706Z,99782.33
2019-06-25T15:33:38.291Z,99813.77
2019-06-25T15:36:06.866Z,99828.50
2019-06-25T15:38:46.913Z,99834.42
2019-06-25T15:41:05.876Z,99824.95
2019-06-25T15:43:34.477Z,99824.95
2019-06-25T15:46:03.254Z,99838.41
2019-06-25T15:48:32.032Z,99843.08
2019-06-25T15:51:00.709Z,99854.34
2019-06-25T15:53:29.620Z,99856.79
2019-06-25T15:55:58.229Z,99858.88
2019-06-25T15:58:26.960Z,99859.82
2019-06-25T16:00:55.503Z,99879.75
2019-06-25T16:03:24.179Z,99891.50
2019-06-25T16:05:52.878Z,99885.92
2019-06-25T16:08:21.695Z,99891.84
2019-06-25T16:10:50.263Z,99900.63
2019-06-25T16:13:18.843Z,99906.56
2019-06-25T16:15:47.508Z,99914.97
2019-06-25T16:18:16.106Z,99909.48
2019-06-25T16:20:44.733Z,99914.98
2019-06-25T16:23:13.368Z,99912.19
2019-06-25T16:25:42.351Z,99915.73
2019-06-25T16:28:11.337Z,99917.17
2019-06-25T16:30:40.083Z,99916.73
2019-06-25T16:33:08.687Z,99917.00
2019-06-25T16:35:37.259Z,99914.16
2019-06-25T16:38:05.750Z,99928.47
2019-06-25T16:40:34.527Z,99924.80
2019-06-25T16:43:03.002Z,99922.55
2019-06-25T16:45:31.590Z,99927.95
2019-06-25T16:48:00.153Z,99929.05
2019-06-25T16:50:28.823Z,99937.16
2019-06-25T16:53:00.850Z,99936.49
2019-06-25T16:55:27.791Z,99938.08
2019-06-25T16:57:56.391Z,99933.91
2019-06-25T17:00:24.901Z,99933.02
2019-06-25T17:02:55.034Z,99929.73
2019-06-25T17:05:31.874Z,99929.62
2019-06-25T17:07:54.217Z,99931.39
2019-06-25T17:10:23.103Z,99939.70
2019-06-25T17:12:51.592Z,99938.61
2019-06-25T17:15:20.189Z,99932.83
2019-06-25T17:17:48.875Z,99934.63
2019-06-25T17:20:17.635Z,99935.27
2019-06-25T17:22:46.418Z,99947.56
2019-06-25T17:25:15.221Z,99940.31
2019-06-25T17:27:49.801Z,99947.37
2019-06-25T17:30:15.814Z,99945.78
2019-06-25T17:32:44.389Z,99951.39
2019-06-25T17:35:13.157Z,99957.14
2019-06-25T17:37:41.750Z,99957.99
2019-06-25T17:40:10.646Z,99955.39
2019-06-25T17:42:39.334Z,99954.07
2019-06-25T17:45:08.211Z,99958.59
2019-06-25T17:47:36.712Z,99947.87
2019-06-25T17:50:05.715Z,99952.66
2019-06-25T17:52:34.383Z,99951.66
2019-06-25T17:55:03.275Z,99944.77
2019-06-25T17:57:31.932Z,99944.77
2019-06-25T18:00:00.611Z,99943.50
2019-06-25T18:02:29.217Z,99943.50
2019-06-25T18:04:57.686Z,99940.78
2019-06-25T18:07:26.366Z,99942.61
2019-06-25T18:10:07.275Z,99943.56
2019-06-25T18:12:25.484Z,99947.28
2019-06-25T18:14:54.077Z,99941.72
2019-06-25T18:17:22.909Z,99933.16
2019-06-25T18:19:51.721Z,99936.69
2019-06-25T18:22:20.327Z,99942.55
2019-06-25T18:24:48.890Z,99942.55
2019-06-25T18:27:17.581Z,99940.48
2019-06-25T18:29:46.142Z,99940.48
2019-06-25T18:32:14.925Z,99953.08
2019-06-25T18:34:43.570Z,99957.67
2019-06-25T18:37:12.278Z,99953.47
2019-06-25T18:39:40.992Z,99953.47
2019-06-25T18:42:09.584Z,99961.02
2019-06-25T18:44:38.386Z,99956.99
2019-06-25T18:47:06.979Z,99960.19
2019-06-25T18:49:39.055Z,99965.41
2019-06-25T18:52:06.338Z,99980.25
2019-06-25T18:54:35.122Z,99982.59
2019-06-25T18:57:03.710Z,100001.48
2019-06-25T18:59:32.281Z,100006.03
2019-06-25T19:02:01.221Z,100009.25
2019-06-25T19:04:29.918Z,100013.77
2019-06-25T19:06:58.788Z,100016.48
2019-06-25T19:09:27.375Z,100028.11
2019-06-25T19:11:55.889Z,100027.92
2019-06-25T19:14:24.566Z,100022.88
2019-06-25T19:16:53.166Z,100032.98
2019-06-25T19:19:21.759Z,100041.12
2019-06-25T19:21:50.347Z,100049.50
2019-06-25T19:24:19.042Z,100046.95
2019-06-25T19:26:47.738Z,100053.37
2019-06-25T19:29:16.426Z,100055.58
2019-06-25T19:31:45.119Z,100061.41
2019-06-25T19:34:13.686Z,100064.98
2019-06-25T19:36:42.335Z,100072.76
2019-06-25T19:39:10.893Z,100077.15
2019-06-25T19:41:39.699Z,100071.69
2019-06-25T19:44:08.573Z,100061.37
2019-06-25T19:46:37.156Z,100080.30
2019-06-25T19:49:05.549Z,100076.83
2019-06-25T20:18:50.199Z,100072.49
2019-06-25T20:21:18.958Z,100072.28
2019-06-25T20:23:47.474Z,100065.48
2019-06-25T20:26:16.245Z,100068.48
2019-06-25T20:28:44.845Z,100074.09
2019-06-25T20:31:13.293Z,100082.78
2019-06-25T20:33:42.193Z,100084.94
2019-06-25T20:36:10.793Z,100081.69
2019-06-25T20:38:39.450Z,100083.65
2019-06-25T20:41:07.953Z,100080.22
2019-06-25T20:43:36.641Z,100078.69
2019-06-25T20:46:05.145Z,100085.73
2019-06-25T20:48:33.859Z,100080.83
2019-06-25T20:51:02.473Z,100090.38
2019-06-25T20:53:32.683Z,100085.41
2019-06-25T20:56:01.539Z,100090.48
2019-06-25T20:58:30.254Z,100096.90
2019-06-25T21:00:58.756Z,100094.72
2019-06-25T21:03:29.702Z,100096.40
2019-06-25T21:05:58.240Z,100098.47
2019-06-25T21:08:26.867Z,100105.25
2019-06-25T21:10:55.428Z,100104.76
2019-06-25T21:13:24.214Z,100101.96
2019-06-25T21:15:52.765Z,100106.41
2019-06-25T21:18:21.407Z,100096.70
2019-06-25T21:20:49.982Z,100100.60
2019-06-25T21:23:18.349Z,100102.45
2019-06-25T21:25:46.902Z,100098.41
2019-06-25T21:28:15.386Z,100096.56
2019-06-25T21:30:43.855Z,100102.74
2019-06-25T21:33:12.364Z,100095.03
2019-06-25T21:35:44.351Z,100094.42
2019-06-25T21:38:11.413Z,100100.66
2019-06-25T21:40:39.993Z,100098.91
2019-06-25T21:43:08.666Z,100102.56
2019-06-25T21:45:37.247Z,100091.11
2019-06-25T21:48:05.715Z,100091.51
2019-06-25T21:50:34.306Z,100091.41
2019-06-25T21:53:03.083Z,100089.95
2019-06-25T21:55:31.544Z,100080.95
2019-06-25T21:58:00.004Z,100094.98
2019-06-25T22:00:31.460Z,100096.81
2019-06-25T22:03:00.135Z,100102.50
2019-06-25T22:05:28.644Z,100096.52
2019-06-25T22:07:57.247Z,100105.36
2019-06-25T22:10:25.971Z,100104.47
2019-06-25T22:12:54.442Z,100099.31
2019-06-25T22:15:22.916Z,100096.22
2019-06-25T22:17:51.485Z,100097.94
2019-06-25T22:20:20.354Z,100103.95
2019-06-25T22:22:48.927Z,100100.37
2019-06-25T22:25:17.377Z,100095.34
2019-06-25T22:27:45.862Z,100106.35
2019-06-25T22:30:16.443Z,100104.52
2019-06-25T22:32:45.126Z,100098.27
2019-06-25T22:35:14.533Z,100100.86
2019-06-25T22:37:43.083Z,100100.60
2019-06-25T22:40:12.153Z,100094.29
2019-06-25T22:42:40.641Z,100101.70
2019-06-25T22:45:09.804Z,100097.30
2019-06-25T22:47:38.348Z,100100.73
2019-06-25T22:50:07.720Z,100090.52
2019-06-25T22:52:36.190Z,100091.44
2019-06-25T22:55:05.044Z,100086.30
2019-06-25T22:57:34.583Z,100091.61
2019-06-25T23:00:04.718Z,100096.61
2019-06-25T23:02:33.463Z,100092.47
2019-06-25T23:05:02.142Z,100094.09
2019-06-25T23:07:30.919Z,100098.03
2019-06-25T23:09:59.477Z,100085.08
2019-06-25T23:12:27.831Z,100092.58
2019-06-25T23:14:56.308Z,100093.34
2019-06-25T23:17:24.885Z,100091.41
2019-06-25T23:19:53.292Z,100093.86
2019-06-25T23:22:21.703Z,100087.83
2019-06-25T23:24:50.189Z,100085.36
2019-06-25T23:27:18.770Z,100084.78
2019-06-25T23:29:47.247Z,100087.63
2019-06-25T23:32:15.816Z,100085.74
2019-06-25T23:34:44.267Z,100086.76
2019-06-25T23:37:12.700Z,100081.95
2019-06-25T23:39:41.175Z,100081.54
2019-06-25T23:42:09.777Z,100081.75
2019-06-25T23:44:38.325Z,100074.27
2019-06-25T23:47:07.014Z,100079.41
2019-06-25T23:49:36.066Z,100078.49
2019-06-25T23:52:04.636Z,100079.27
2019-06-25T23:54:33.289Z,100075.97
2019-06-25T23:57:01.875Z,100070.57
2019-06-25T23:59:30.341Z,100076.71
